sensor_id;sensor_type;location;lat;lon;timestamp;P1;durP1;ratioP1;P2;durP2;ratioP2
13085;SDS011;6609;49.882;8.664;2023-06-14T00:00:15;12.03;;;4.87;;
13085;SDS011;6609;49.882;8.664;2023-06-14T00:02:42;9.93;;;5.10;;
13085;SDS011;6609;49.882;8.664;2023-06-14T00:05:09;10.60;;;5.03;;
13085;SDS011;6609;49.882;8.664;2023-06-14T00:07:37;10.97;;;5.10;;
13085;SDS011;6609;49.882;8.664;2023-06-14T00:10:07;8.63;;;5.10;;
13085;SDS011;6609;49.882;8.664;2023-06-14T00:12:35;9.63;;;4.83;;
13085;SDS011;6609;49.882;8.664;2023-06-14T00:15:04;8.77;;;4.97;;
13085;SDS011;6609;49.882;8.664;2023-06-14T00:17:31;7.80;;;4.90;;
13085;SDS011;6609;49.882;8.664;2023-06-14T00:19:59;10.73;;;5.07;;
13085;SDS011;6609;49.882;8.664;2023-06-14T00:22:30;9.30;;;4.90;;
13085;SDS011;6609;49.882;8.664;2023-06-14T00:24:58;10.03;;;5.20;;
13085;SDS011;6609;49.882;8.664;2023-06-14T00:27:24;9.73;;;5.33;;
13085;SDS011;6609;49.882;8.664;2023-06-14T00:29:51;9.10;;;5.27;;
13085;SDS011;6609;49.882;8.664;2023-06-14T00:32:19;7.43;;;4.97;;
13085;SDS011;6609;49.882;8.664;2023-06-14T00:34:50;11.33;;;5.47;;
13085;SDS011;6609;49.882;8.664;2023-06-14T00:37:17;7.20;;;5.00;;
13085;SDS011;6609;49.882;8.664;2023-06-14T00:39:44;8.00;;;4.80;;
13085;SDS011;6609;49.882;8.664;2023-06-14T00:42:11;10.83;;;4.43;;
13085;SDS011;6609;49.882;8.664;2023-06-14T00:44:37;8.17;;;5.43;;
13085;SDS011;6609;49.882;8.664;2023-06-14T00:47:04;10.77;;;5.23;;
13085;SDS011;6609;49.882;8.664;2023-06-14T00:49:33;11.23;;;5.20;;
13085;SDS011;6609;49.882;8.664;2023-06-14T00:52:00;9.97;;;5.40;;
13085;SDS011;6609;49.882;8.664;2023-06-14T00:54:28;9.53;;;5.10;;
13085;SDS011;6609;49.882;8.664;2023-06-14T00:56:55;9.97;;;5.73;;
13085;SDS011;6609;49.882;8.664;2023-06-14T00:59:21;8.40;;;4.43;;
13085;SDS011;6609;49.882;8.664;2023-06-14T01:01:48;9.77;;;5.37;;
13085;SDS011;6609;49.882;8.664;2023-06-14T01:04:15;8.03;;;5.10;;
13085;SDS011;6609;49.882;8.664;2023-06-14T01:06:45;13.30;;;5.53;;
13085;SDS011;6609;49.882;8.664;2023-06-14T01:09:17;10.13;;;5.57;;
13085;SDS011;6609;49.882;8.664;2023-06-14T01:11:47;7.83;;;4.73;;
13085;SDS011;6609;49.882;8.664;2023-06-14T01:14:17;9.80;;;4.60;;
13085;SDS011;6609;49.882;8.664;2023-06-14T01:16:44;12.63;;;5.40;;
13085;SDS011;6609;49.882;8.664;2023-06-14T01:19:12;7.53;;;4.57;;
13085;SDS011;6609;49.882;8.664;2023-06-14T01:21:41;9.20;;;4.93;;
13085;SDS011;6609;49.882;8.664;2023-06-14T01:24:09;12.20;;;5.53;;
13085;SDS011;6609;49.882;8.664;2023-06-14T01:26:36;10.73;;;4.90;;
13085;SDS011;6609;49.882;8.664;2023-06-14T01:29:06;12.67;;;5.80;;
13085;SDS011;6609;49.882;8.664;2023-06-14T01:31:33;13.03;;;5.27;;
13085;SDS011;6609;49.882;8.664;2023-06-14T01:34:06;8.77;;;4.60;;
13085;SDS011;6609;49.882;8.664;2023-06-14T01:36:33;9.60;;;5.47;;
13085;SDS011;6609;49.882;8.664;2023-06-14T01:39:00;12.17;;;5.23;;
13085;SDS011;6609;49.882;8.664;2023-06-14T01:41:29;12.00;;;4.77;;
13085;SDS011;6609;49.882;8.664;2023-06-14T01:43:57;10.87;;;5.30;;
13085;SDS011;6609;49.882;8.664;2023-06-14T01:46:24;12.23;;;5.57;;
13085;SDS011;6609;49.882;8.664;2023-06-14T01:48:51;10.47;;;5.30;;
13085;SDS011;6609;49.882;8.664;2023-06-14T01:51:18;11.23;;;4.90;;
13085;SDS011;6609;49.882;8.664;2023-06-14T01:53:45;8.30;;;4.30;;
13085;SDS011;6609;49.882;8.664;2023-06-14T01:56:13;12.03;;;4.77;;
13085;SDS011;6609;49.882;8.664;2023-06-14T01:58:42;11.37;;;5.80;;
13085;SDS011;6609;49.882;8.664;2023-06-14T02:01:09;10.23;;;5.27;;
13085;SDS011;6609;49.882;8.664;2023-06-14T02:03:36;10.47;;;5.17;;
13085;SDS011;6609;49.882;8.664;2023-06-14T02:06:04;13.27;;;5.70;;
13085;SDS011;6609;49.882;8.664;2023-06-14T02:08:31;11.90;;;5.10;;
13085;SDS011;6609;49.882;8.664;2023-06-14T02:10:58;13.03;;;5.50;;
13085;SDS011;6609;49.882;8.664;2023-06-14T02:13:24;11.97;;;5.50;;
13085;SDS011;6609;49.882;8.664;2023-06-14T02:15:52;6.40;;;4.70;;
13085;SDS011;6609;49.882;8.664;2023-06-14T02:18:19;8.53;;;4.73;;
13085;SDS011;6609;49.882;8.664;2023-06-14T02:20:46;14.77;;;5.03;;
13085;SDS011;6609;49.882;8.664;2023-06-14T02:23:13;11.00;;;5.13;;
13085;SDS011;6609;49.882;8.664;2023-06-14T02:25:40;7.70;;;4.70;;
13085;SDS011;6609;49.882;8.664;2023-06-14T02:28:08;12.70;;;5.33;;
13085;SDS011;6609;49.882;8.664;2023-06-14T02:30:34;13.10;;;4.77;;
13085;SDS011;6609;49.882;8.664;2023-06-14T02:33:03;9.73;;;5.27;;
13085;SDS011;6609;49.882;8.664;2023-06-14T02:35:30;12.30;;;5.40;;
13085;SDS011;6609;49.882;8.664;2023-06-14T02:37:57;7.10;;;4.73;;
13085;SDS011;6609;49.882;8.664;2023-06-14T02:40:24;9.40;;;4.97;;
13085;SDS011;6609;49.882;8.664;2023-06-14T02:42:51;10.60;;;5.80;;
13085;SDS011;6609;49.882;8.664;2023-06-14T02:45:18;8.37;;;4.57;;
13085;SDS011;6609;49.882;8.664;2023-06-14T02:47:46;10.57;;;4.97;;
13085;SDS011;6609;49.882;8.664;2023-06-14T02:50:14;10.87;;;5.17;;
13085;SDS011;6609;49.882;8.664;2023-06-14T02:52:41;12.60;;;5.67;;
13085;SDS011;6609;49.882;8.664;2023-06-14T02:55:09;11.53;;;5.67;;
13085;SDS011;6609;49.882;8.664;2023-06-14T02:57:36;10.77;;;5.17;;
13085;SDS011;6609;49.882;8.664;2023-06-14T03:00:03;13.07;;;6.33;;
13085;SDS011;6609;49.882;8.664;2023-06-14T03:02:33;13.50;;;5.57;;
13085;SDS011;6609;49.882;8.664;2023-06-14T03:05:00;9.77;;;5.03;;
13085;SDS011;6609;49.882;8.664;2023-06-14T03:07:29;10.03;;;5.27;;
13085;SDS011;6609;49.882;8.664;2023-06-14T03:09:57;17.60;;;6.30;;
13085;SDS011;6609;49.882;8.664;2023-06-14T03:12:24;9.63;;;5.57;;
13085;SDS011;6609;49.882;8.664;2023-06-14T03:14:51;12.37;;;5.33;;
13085;SDS011;6609;49.882;8.664;2023-06-14T03:17:21;9.53;;;5.23;;
13085;SDS011;6609;49.882;8.664;2023-06-14T03:19:49;14.30;;;5.50;;
13085;SDS011;6609;49.882;8.664;2023-06-14T03:22:15;19.73;;;6.20;;
13085;SDS011;6609;49.882;8.664;2023-06-14T03:24:43;11.30;;;5.43;;
13085;SDS011;6609;49.882;8.664;2023-06-14T03:27:10;11.93;;;5.07;;
13085;SDS011;6609;49.882;8.664;2023-06-14T03:29:37;11.00;;;5.57;;
13085;SDS011;6609;49.882;8.664;2023-06-14T03:32:05;9.53;;;5.07;;
13085;SDS011;6609;49.882;8.664;2023-06-14T03:34:32;15.97;;;5.60;;
13085;SDS011;6609;49.882;8.664;2023-06-14T03:36:58;13.67;;;5.57;;
13085;SDS011;6609;49.882;8.664;2023-06-14T03:39:25;13.63;;;5.60;;
13085;SDS011;6609;49.882;8.664;2023-06-14T03:41:54;16.23;;;6.17;;
13085;SDS011;6609;49.882;8.664;2023-06-14T03:44:20;14.03;;;5.60;;
13085;SDS011;6609;49.882;8.664;2023-06-14T03:46:48;12.23;;;5.67;;
13085;SDS011;6609;49.882;8.664;2023-06-14T03:49:15;12.67;;;5.97;;
13085;SDS011;6609;49.882;8.664;2023-06-14T03:51:42;11.17;;;4.87;;
13085;SDS011;6609;49.882;8.664;2023-06-14T03:54:09;16.30;;;6.50;;
13085;SDS011;6609;49.882;8.664;2023-06-14T03:56:36;13.40;;;5.73;;
13085;SDS011;6609;49.882;8.664;2023-06-14T03:59:05;10.40;;;5.07;;
13085;SDS011;6609;49.882;8.664;2023-06-14T04:01:31;12.77;;;5.70;;
13085;SDS011;6609;49.882;8.664;2023-06-14T04:03:58;11.83;;;6.00;;
13085;SDS011;6609;49.882;8.664;2023-06-14T04:06:26;11.30;;;4.60;;
13085;SDS011;6609;49.882;8.664;2023-06-14T04:08:56;13.60;;;5.97;;
13085;SDS011;6609;49.882;8.664;2023-06-14T04:11:26;11.53;;;5.23;;
13085;SDS011;6609;49.882;8.664;2023-06-14T04:13:52;8.57;;;4.97;;
13085;SDS011;6609;49.882;8.664;2023-06-14T04:16:22;10.80;;;5.20;;
13085;SDS011;6609;49.882;8.664;2023-06-14T04:18:49;13.33;;;5.73;;
13085;SDS011;6609;49.882;8.664;2023-06-14T04:21:17;18.80;;;6.07;;
13085;SDS011;6609;49.882;8.664;2023-06-14T04:23:45;16.30;;;5.57;;
13085;SDS011;6609;49.882;8.664;2023-06-14T04:26:12;11.60;;;5.30;;
13085;SDS011;6609;49.882;8.664;2023-06-14T04:28:39;11.20;;;5.10;;
13085;SDS011;6609;49.882;8.664;2023-06-14T04:31:06;9.17;;;4.90;;
13085;SDS011;6609;49.882;8.664;2023-06-14T04:33:36;11.93;;;5.03;;
13085;SDS011;6609;49.882;8.664;2023-06-14T04:36:08;15.43;;;6.10;;
13085;SDS011;6609;49.882;8.664;2023-06-14T04:38:36;11.37;;;5.60;;
13085;SDS011;6609;49.882;8.664;2023-06-14T04:41:03;10.80;;;5.10;;
13085;SDS011;6609;49.882;8.664;2023-06-14T04:43:31;12.50;;;5.60;;
13085;SDS011;6609;49.882;8.664;2023-06-14T04:46:03;11.00;;;4.80;;
13085;SDS011;6609;49.882;8.664;2023-06-14T04:48:37;17.33;;;5.80;;
13085;SDS011;6609;49.882;8.664;2023-06-14T04:51:05;13.37;;;5.83;;
13085;SDS011;6609;49.882;8.664;2023-06-14T04:53:32;13.20;;;6.13;;
13085;SDS011;6609;49.882;8.664;2023-06-14T04:55:59;10.27;;;5.07;;
13085;SDS011;6609;49.882;8.664;2023-06-14T04:58:27;14.10;;;5.50;;
13085;SDS011;6609;49.882;8.664;2023-06-14T05:00:55;10.50;;;5.23;;
13085;SDS011;6609;49.882;8.664;2023-06-14T05:03:24;12.67;;;5.90;;
13085;SDS011;6609;49.882;8.664;2023-06-14T05:05:53;11.10;;;5.20;;
13085;SDS011;6609;49.882;8.664;2023-06-14T05:08:20;12.07;;;5.57;;
13085;SDS011;6609;49.882;8.664;2023-06-14T05:10:49;15.37;;;5.73;;
13085;SDS011;6609;49.882;8.664;2023-06-14T05:13:15;11.37;;;5.10;;
13085;SDS011;6609;49.882;8.664;2023-06-14T05:15:42;13.20;;;5.90;;
13085;SDS011;6609;49.882;8.664;2023-06-14T05:18:09;11.57;;;5.20;;
13085;SDS011;6609;49.882;8.664;2023-06-14T05:20:36;15.70;;;5.57;;
13085;SDS011;6609;49.882;8.664;2023-06-14T05:23:04;12.80;;;5.40;;
13085;SDS011;6609;49.882;8.664;2023-06-14T05:25:31;15.33;;;5.10;;
13085;SDS011;6609;49.882;8.664;2023-06-14T05:27:58;8.17;;;4.80;;
13085;SDS011;6609;49.882;8.664;2023-06-14T05:30:25;16.20;;;6.37;;
13085;SDS011;6609;49.882;8.664;2023-06-14T05:32:54;15.70;;;5.53;;
13085;SDS011;6609;49.882;8.664;2023-06-14T05:35:21;11.07;;;5.13;;
13085;SDS011;6609;49.882;8.664;2023-06-14T05:37:48;9.93;;;4.90;;
13085;SDS011;6609;49.882;8.664;2023-06-14T05:40:17;12.87;;;5.77;;
13085;SDS011;6609;49.882;8.664;2023-06-14T05:42:44;11.90;;;5.10;;
13085;SDS011;6609;49.882;8.664;2023-06-14T05:45:11;13.90;;;5.47;;
13085;SDS011;6609;49.882;8.664;2023-06-14T05:47:40;12.63;;;5.97;;
13085;SDS011;6609;49.882;8.664;2023-06-14T05:50:06;13.37;;;5.97;;
13085;SDS011;6609;49.882;8.664;2023-06-14T05:52:34;10.53;;;5.43;;
13085;SDS011;6609;49.882;8.664;2023-06-14T05:55:02;12.43;;;5.00;;
13085;SDS011;6609;49.882;8.664;2023-06-14T05:57:30;12.73;;;5.13;;
13085;SDS011;6609;49.882;8.664;2023-06-14T05:59:57;11.53;;;5.03;;
13085;SDS011;6609;49.882;8.664;2023-06-14T06:02:24;9.20;;;4.47;;
13085;SDS011;6609;49.882;8.664;2023-06-14T06:04:51;11.73;;;5.50;;
13085;SDS011;6609;49.882;8.664;2023-06-14T06:07:18;10.87;;;5.00;;
13085;SDS011;6609;49.882;8.664;2023-06-14T06:09:45;12.40;;;5.47;;
13085;SDS011;6609;49.882;8.664;2023-06-14T06:12:12;12.03;;;5.70;;
13085;SDS011;6609;49.882;8.664;2023-06-14T06:14:40;10.93;;;5.47;;
13085;SDS011;6609;49.882;8.664;2023-06-14T06:17:06;11.90;;;4.80;;
13085;SDS011;6609;49.882;8.664;2023-06-14T06:19:33;10.83;;;5.47;;
13085;SDS011;6609;49.882;8.664;2023-06-14T06:22:00;10.60;;;5.07;;
13085;SDS011;6609;49.882;8.664;2023-06-14T06:24:29;15.43;;;6.67;;
13085;SDS011;6609;49.882;8.664;2023-06-14T06:26:56;12.37;;;4.53;;
13085;SDS011;6609;49.882;8.664;2023-06-14T06:29:23;12.13;;;5.67;;
13085;SDS011;6609;49.882;8.664;2023-06-14T06:31:52;10.67;;;4.90;;
13085;SDS011;6609;49.882;8.664;2023-06-14T06:34:18;10.27;;;4.67;;
13085;SDS011;6609;49.882;8.664;2023-06-14T06:36:45;9.83;;;5.20;;
13085;SDS011;6609;49.882;8.664;2023-06-14T06:39:13;8.60;;;4.33;;
13085;SDS011;6609;49.882;8.664;2023-06-14T06:41:40;9.03;;;4.87;;
13085;SDS011;6609;49.882;8.664;2023-06-14T06:44:07;9.57;;;4.87;;
13085;SDS011;6609;49.882;8.664;2023-06-14T06:46:35;9.40;;;5.53;;
13085;SDS011;6609;49.882;8.664;2023-06-14T06:49:06;9.33;;;4.47;;
13085;SDS011;6609;49.882;8.664;2023-06-14T06:51:34;9.77;;;4.70;;
13085;SDS011;6609;49.882;8.664;2023-06-14T06:54:01;9.20;;;4.53;;
13085;SDS011;6609;49.882;8.664;2023-06-14T06:56:28;9.20;;;4.93;;
13085;SDS011;6609;49.882;8.664;2023-06-14T06:58:56;8.40;;;4.50;;
13085;SDS011;6609;49.882;8.664;2023-06-14T07:01:23;8.20;;;4.27;;
13085;SDS011;6609;49.882;8.664;2023-06-14T07:03:51;9.30;;;4.57;;
13085;SDS011;6609;49.882;8.664;2023-06-14T07:06:19;10.27;;;5.13;;
13085;SDS011;6609;49.882;8.664;2023-06-14T07:08:46;7.93;;;4.70;;
13085;SDS011;6609;49.882;8.664;2023-06-14T07:11:13;8.23;;;4.73;;
13085;SDS011;6609;49.882;8.664;2023-06-14T07:13:40;18.27;;;5.60;;
13085;SDS011;6609;49.882;8.664;2023-06-14T07:16:06;10.13;;;5.10;;
13085;SDS011;6609;49.882;8.664;2023-06-14T07:18:33;12.07;;;6.23;;
13085;SDS011;6609;49.882;8.664;2023-06-14T07:21:02;6.60;;;3.83;;
13085;SDS011;6609;49.882;8.664;2023-06-14T07:23:30;6.83;;;4.53;;
13085;SDS011;6609;49.882;8.664;2023-06-14T07:25:57;7.27;;;4.33;;
13085;SDS011;6609;49.882;8.664;2023-06-14T07:28:24;10.30;;;4.30;;
13085;SDS011;6609;49.882;8.664;2023-06-14T07:30:51;9.60;;;4.97;;
13085;SDS011;6609;49.882;8.664;2023-06-14T07:33:18;8.27;;;4.50;;
13085;SDS011;6609;49.882;8.664;2023-06-14T07:35:44;13.77;;;5.37;;
13085;SDS011;6609;49.882;8.664;2023-06-14T07:38:13;7.80;;;4.67;;
13085;SDS011;6609;49.882;8.664;2023-06-14T07:40:41;6.43;;;3.77;;
13085;SDS011;6609;49.882;8.664;2023-06-14T07:43:08;7.93;;;4.53;;
13085;SDS011;6609;49.882;8.664;2023-06-14T07:45:36;7.67;;;4.67;;
13085;SDS011;6609;49.882;8.664;2023-06-14T07:48:03;9.73;;;4.50;;
13085;SDS011;6609;49.882;8.664;2023-06-14T07:50:30;8.27;;;4.80;;
13085;SDS011;6609;49.882;8.664;2023-06-14T07:52:57;9.47;;;4.27;;
13085;SDS011;6609;49.882;8.664;2023-06-14T07:55:24;13.73;;;4.67;;
13085;SDS011;6609;49.882;8.664;2023-06-14T07:57:52;8.80;;;4.37;;
13085;SDS011;6609;49.882;8.664;2023-06-14T08:00:20;9.03;;;4.67;;
13085;SDS011;6609;49.882;8.664;2023-06-14T08:02:47;9.10;;;4.67;;
13085;SDS011;6609;49.882;8.664;2023-06-14T08:05:14;10.80;;;4.17;;
13085;SDS011;6609;49.882;8.664;2023-06-14T08:07:41;7.73;;;4.13;;
13085;SDS011;6609;49.882;8.664;2023-06-14T08:10:08;8.07;;;4.40;;
13085;SDS011;6609;49.882;8.664;2023-06-14T08:12:36;9.83;;;4.43;;
13085;SDS011;6609;49.882;8.664;2023-06-14T08:15:05;6.77;;;4.07;;
13085;SDS011;6609;49.882;8.664;2023-06-14T08:17:32;8.47;;;4.40;;
13085;SDS011;6609;49.882;8.664;2023-06-14T08:19:59;11.37;;;4.83;;
13085;SDS011;6609;49.882;8.664;2023-06-14T08:22:26;10.07;;;5.40;;
13085;SDS011;6609;49.882;8.664;2023-06-14T08:24:56;22.23;;;5.03;;
13085;SDS011;6609;49.882;8.664;2023-06-14T08:27:23;10.30;;;4.47;;
13085;SDS011;6609;49.882;8.664;2023-06-14T08:29:50;7.37;;;4.27;;
13085;SDS011;6609;49.882;8.664;2023-06-14T08:32:20;6.13;;;3.87;;
13085;SDS011;6609;49.882;8.664;2023-06-14T08:34:47;8.23;;;4.40;;
13085;SDS011;6609;49.882;8.664;2023-06-14T08:37:14;6.93;;;3.57;;
13085;SDS011;6609;49.882;8.664;2023-06-14T08:39:41;7.70;;;3.63;;
13085;SDS011;6609;49.882;8.664;2023-06-14T08:42:09;8.30;;;3.43;;
13085;SDS011;6609;49.882;8.664;2023-06-14T08:44:36;8.10;;;4.10;;
13085;SDS011;6609;49.882;8.664;2023-06-14T08:47:03;7.20;;;4.17;;
13085;SDS011;6609;49.882;8.664;2023-06-14T08:49:33;8.13;;;4.03;;
13085;SDS011;6609;49.882;8.664;2023-06-14T08:52:02;6.50;;;3.43;;
13085;SDS011;6609;49.882;8.664;2023-06-14T08:54:30;8.97;;;3.20;;
13085;SDS011;6609;49.882;8.664;2023-06-14T08:57:01;8.80;;;3.57;;
13085;SDS011;6609;49.882;8.664;2023-06-14T08:59:29;7.27;;;3.33;;
13085;SDS011;6609;49.882;8.664;2023-06-14T09:02:04;9.07;;;3.40;;
13085;SDS011;6609;49.882;8.664;2023-06-14T09:04:33;9.17;;;3.60;;
13085;SDS011;6609;49.882;8.664;2023-06-14T09:07:01;6.20;;;3.07;;
13085;SDS011;6609;49.882;8.664;2023-06-14T09:09:31;5.70;;;3.33;;
13085;SDS011;6609;49.882;8.664;2023-06-14T09:11:59;10.20;;;3.57;;
13085;SDS011;6609;49.882;8.664;2023-06-14T09:14:26;5.97;;;3.30;;
13085;SDS011;6609;49.882;8.664;2023-06-14T09:16:53;9.47;;;3.03;;
13085;SDS011;6609;49.882;8.664;2023-06-14T09:19:21;6.80;;;3.63;;
13085;SDS011;6609;49.882;8.664;2023-06-14T09:21:49;5.97;;;3.20;;
13085;SDS011;6609;49.882;8.664;2023-06-14T09:24:17;6.33;;;3.40;;
13085;SDS011;6609;49.882;8.664;2023-06-14T09:26:46;6.30;;;2.80;;
13085;SDS011;6609;49.882;8.664;2023-06-14T09:29:13;9.27;;;3.30;;
13085;SDS011;6609;49.882;8.664;2023-06-14T09:31:42;6.13;;;2.93;;
13085;SDS011;6609;49.882;8.664;2023-06-14T09:34:10;6.47;;;3.40;;
13085;SDS011;6609;49.882;8.664;2023-06-14T09:36:37;7.83;;;2.87;;
13085;SDS011;6609;49.882;8.664;2023-06-14T09:39:09;7.13;;;3.43;;
13085;SDS011;6609;49.882;8.664;2023-06-14T09:41:36;8.03;;;3.07;;
13085;SDS011;6609;49.882;8.664;2023-06-14T09:44:04;4.67;;;2.70;;
13085;SDS011;6609;49.882;8.664;2023-06-14T09:46:32;4.17;;;2.67;;
13085;SDS011;6609;49.882;8.664;2023-06-14T09:48:59;4.60;;;3.07;;
13085;SDS011;6609;49.882;8.664;2023-06-14T09:51:27;4.53;;;2.73;;
13085;SDS011;6609;49.882;8.664;2023-06-14T09:53:58;4.73;;;3.10;;
13085;SDS011;6609;49.882;8.664;2023-06-14T09:56:27;6.00;;;3.30;;
13085;SDS011;6609;49.882;8.664;2023-06-14T09:58:56;5.87;;;2.90;;
13085;SDS011;6609;49.882;8.664;2023-06-14T10:01:25;8.47;;;3.30;;
13085;SDS011;6609;49.882;8.664;2023-06-14T10:03:54;6.97;;;3.17;;
13085;SDS011;6609;49.882;8.664;2023-06-14T10:06:25;4.93;;;2.63;;
13085;SDS011;6609;49.882;8.664;2023-06-14T10:08:53;6.30;;;3.60;;
13085;SDS011;6609;49.882;8.664;2023-06-14T10:11:24;6.37;;;3.00;;
13085;SDS011;6609;49.882;8.664;2023-06-14T10:13:53;5.27;;;2.77;;
13085;SDS011;6609;49.882;8.664;2023-06-14T10:16:23;6.20;;;3.37;;
13085;SDS011;6609;49.882;8.664;2023-06-14T10:18:59;6.70;;;3.20;;
13085;SDS011;6609;49.882;8.664;2023-06-14T10:21:32;7.13;;;3.60;;
13085;SDS011;6609;49.882;8.664;2023-06-14T10:24:05;6.10;;;2.97;;
13085;SDS011;6609;49.882;8.664;2023-06-14T10:26:40;4.30;;;2.63;;
13085;SDS011;6609;49.882;8.664;2023-06-14T10:29:16;4.97;;;2.87;;
13085;SDS011;6609;49.882;8.664;2023-06-14T10:31:44;7.07;;;2.97;;
13085;SDS011;6609;49.882;8.664;2023-06-14T10:34:11;8.07;;;3.10;;
13085;SDS011;6609;49.882;8.664;2023-06-14T10:36:40;4.67;;;2.87;;
13085;SDS011;6609;49.882;8.664;2023-06-14T10:39:11;4.63;;;2.70;;
13085;SDS011;6609;49.882;8.664;2023-06-14T10:41:52;3.53;;;2.23;;
13085;SDS011;6609;49.882;8.664;2023-06-14T10:44:40;5.47;;;2.70;;
13085;SDS011;6609;49.882;8.664;2023-06-14T10:47:20;5.80;;;2.70;;
13085;SDS011;6609;49.882;8.664;2023-06-14T10:49:51;6.73;;;2.80;;
13085;SDS011;6609;49.882;8.664;2023-06-14T10:52:21;7.37;;;3.33;;
13085;SDS011;6609;49.882;8.664;2023-06-14T10:55:01;8.57;;;2.73;;
13085;SDS011;6609;49.882;8.664;2023-06-14T10:57:35;6.83;;;3.03;;
13085;SDS011;6609;49.882;8.664;2023-06-14T11:00:04;9.53;;;3.00;;
13085;SDS011;6609;49.882;8.664;2023-06-14T11:05:49;7.53;;;2.73;;
13085;SDS011;6609;49.882;8.664;2023-06-14T11:08:21;11.57;;;3.10;;
13085;SDS011;6609;49.882;8.664;2023-06-14T11:10:54;8.87;;;3.30;;
13085;SDS011;6609;49.882;8.664;2023-06-14T11:13:22;8.33;;;3.30;;
13085;SDS011;6609;49.882;8.664;2023-06-14T11:15:51;5.70;;;2.50;;
13085;SDS011;6609;49.882;8.664;2023-06-14T11:18:21;8.23;;;3.30;;
13085;SDS011;6609;49.882;8.664;2023-06-14T11:20:51;9.37;;;3.57;;
13085;SDS011;6609;49.882;8.664;2023-06-14T11:23:18;6.87;;;3.03;;
13085;SDS011;6609;49.882;8.664;2023-06-14T11:25:49;6.97;;;3.20;;
13085;SDS011;6609;49.882;8.664;2023-06-14T11:28:16;6.10;;;2.90;;
13085;SDS011;6609;49.882;8.664;2023-06-14T11:30:46;6.83;;;2.90;;
13085;SDS011;6609;49.882;8.664;2023-06-14T11:33:16;6.33;;;2.80;;
13085;SDS011;6609;49.882;8.664;2023-06-14T11:35:44;9.97;;;3.33;;
13085;SDS011;6609;49.882;8.664;2023-06-14T11:38:11;9.20;;;3.77;;
13085;SDS011;6609;49.882;8.664;2023-06-14T11:40:38;9.20;;;4.20;;
13085;SDS011;6609;49.882;8.664;2023-06-14T11:43:05;9.83;;;3.63;;
13085;SDS011;6609;49.882;8.664;2023-06-14T11:45:32;8.57;;;3.30;;
13085;SDS011;6609;49.882;8.664;2023-06-14T11:48:01;7.37;;;3.33;;
13085;SDS011;6609;49.882;8.664;2023-06-14T11:50:28;7.77;;;3.90;;
13085;SDS011;6609;49.882;8.664;2023-06-14T11:52:55;8.40;;;3.37;;
13085;SDS011;6609;49.882;8.664;2023-06-14T11:55:25;7.87;;;3.37;;
13085;SDS011;6609;49.882;8.664;2023-06-14T11:57:53;7.53;;;3.60;;
13085;SDS011;6609;49.882;8.664;2023-06-14T12:00:23;8.30;;;3.87;;
13085;SDS011;6609;49.882;8.664;2023-06-14T12:02:52;8.87;;;3.77;;
13085;SDS011;6609;49.882;8.664;2023-06-14T12:05:22;6.67;;;3.30;;
13085;SDS011;6609;49.882;8.664;2023-06-14T12:07:49;8.13;;;3.57;;
13085;SDS011;6609;49.882;8.664;2023-06-14T12:10:18;7.53;;;3.50;;
13085;SDS011;6609;49.882;8.664;2023-06-14T12:12:45;8.43;;;3.57;;
13085;SDS011;6609;49.882;8.664;2023-06-14T12:15:12;7.47;;;3.53;;
13085;SDS011;6609;49.882;8.664;2023-06-14T12:17:42;6.67;;;3.33;;
13085;SDS011;6609;49.882;8.664;2023-06-14T12:20:09;8.73;;;3.90;;
13085;SDS011;6609;49.882;8.664;2023-06-14T12:22:40;13.00;;;4.20;;
13085;SDS011;6609;49.882;8.664;2023-06-14T12:25:22;9.27;;;3.73;;
13085;SDS011;6609;49.882;8.664;2023-06-14T12:27:52;7.70;;;3.13;;
13085;SDS011;6609;49.882;8.664;2023-06-14T12:30:19;13.73;;;4.33;;
13085;SDS011;6609;49.882;8.664;2023-06-14T12:32:46;10.37;;;3.90;;
13085;SDS011;6609;49.882;8.664;2023-06-14T12:35:13;10.13;;;4.30;;
13085;SDS011;6609;49.882;8.664;2023-06-14T12:37:41;10.07;;;3.73;;
13085;SDS011;6609;49.882;8.664;2023-06-14T12:40:08;8.97;;;3.67;;
13085;SDS011;6609;49.882;8.664;2023-06-14T12:42:36;8.13;;;3.57;;
13085;SDS011;6609;49.882;8.664;2023-06-14T12:45:03;9.10;;;3.93;;
13085;SDS011;6609;49.882;8.664;2023-06-14T12:47:31;10.13;;;4.27;;
13085;SDS011;6609;49.882;8.664;2023-06-14T12:49:57;8.50;;;3.83;;
13085;SDS011;6609;49.882;8.664;2023-06-14T12:52:26;7.40;;;3.60;;
13085;SDS011;6609;49.882;8.664;2023-06-14T12:54:54;10.40;;;3.87;;
13085;SDS011;6609;49.882;8.664;2023-06-14T12:57:20;11.27;;;4.53;;
13085;SDS011;6609;49.882;8.664;2023-06-14T12:59:48;11.33;;;3.07;;
13085;SDS011;6609;49.882;8.664;2023-06-14T13:02:15;10.23;;;3.93;;
13085;SDS011;6609;49.882;8.664;2023-06-14T13:04:42;7.93;;;3.27;;
13085;SDS011;6609;49.882;8.664;2023-06-14T13:07:09;7.63;;;3.53;;
13085;SDS011;6609;49.882;8.664;2023-06-14T13:09:36;8.27;;;3.63;;
13085;SDS011;6609;49.882;8.664;2023-06-14T13:12:05;7.63;;;3.33;;
13085;SDS011;6609;49.882;8.664;2023-06-14T13:14:32;8.50;;;4.20;;
13085;SDS011;6609;49.882;8.664;2023-06-14T13:16:59;9.90;;;3.83;;
13085;SDS011;6609;49.882;8.664;2023-06-14T13:19:26;14.47;;;3.50;;
13085;SDS011;6609;49.882;8.664;2023-06-14T13:21:53;8.07;;;2.97;;
13085;SDS011;6609;49.882;8.664;2023-06-14T13:24:20;8.17;;;3.90;;
13085;SDS011;6609;49.882;8.664;2023-06-14T13:26:47;10.57;;;3.07;;
13085;SDS011;6609;49.882;8.664;2023-06-14T13:29:15;8.53;;;3.60;;
13085;SDS011;6609;49.882;8.664;2023-06-14T13:31:42;9.83;;;3.63;;
13085;SDS011;6609;49.882;8.664;2023-06-14T13:34:10;7.43;;;3.30;;
13085;SDS011;6609;49.882;8.664;2023-06-14T13:36:36;9.53;;;3.30;;
13085;SDS011;6609;49.882;8.664;2023-06-14T13:39:03;8.67;;;3.80;;
13085;SDS011;6609;49.882;8.664;2023-06-14T13:41:31;11.03;;;3.40;;
13085;SDS011;6609;49.882;8.664;2023-06-14T13:43:59;10.13;;;3.70;;
13085;SDS011;6609;49.882;8.664;2023-06-14T13:46:30;11.63;;;3.50;;
13085;SDS011;6609;49.882;8.664;2023-06-14T13:48:57;8.47;;;3.30;;
13085;SDS011;6609;49.882;8.664;2023-06-14T13:51:25;10.00;;;3.73;;
13085;SDS011;6609;49.882;8.664;2023-06-14T13:53:52;7.03;;;2.77;;
13085;SDS011;6609;49.882;8.664;2023-06-14T13:56:20;9.43;;;3.60;;
13085;SDS011;6609;49.882;8.664;2023-06-14T13:58:49;9.20;;;3.80;;
13085;SDS011;6609;49.882;8.664;2023-06-14T14:01:16;9.40;;;3.63;;
13085;SDS011;6609;49.882;8.664;2023-06-14T14:03:46;13.33;;;4.10;;
13085;SDS011;6609;49.882;8.664;2023-06-14T14:06:12;10.17;;;3.73;;
13085;SDS011;6609;49.882;8.664;2023-06-14T14:08:39;13.17;;;3.53;;
13085;SDS011;6609;49.882;8.664;2023-06-14T14:11:06;12.17;;;3.50;;
13085;SDS011;6609;49.882;8.664;2023-06-14T14:13:33;7.90;;;3.80;;
13085;SDS011;6609;49.882;8.664;2023-06-14T14:16:01;6.47;;;3.40;;
13085;SDS011;6609;49.882;8.664;2023-06-14T14:18:29;10.60;;;3.57;;
13085;SDS011;6609;49.882;8.664;2023-06-14T14:20:57;10.23;;;3.77;;
13085;SDS011;6609;49.882;8.664;2023-06-14T14:23:25;10.73;;;4.03;;
13085;SDS011;6609;49.882;8.664;2023-06-14T14:25:52;11.43;;;4.00;;
13085;SDS011;6609;49.882;8.664;2023-06-14T14:28:19;10.70;;;3.77;;
13085;SDS011;6609;49.882;8.664;2023-06-14T14:30:46;7.03;;;3.63;;
13085;SDS011;6609;49.882;8.664;2023-06-14T14:33:14;7.93;;;3.60;;
13085;SDS011;6609;49.882;8.664;2023-06-14T14:35:42;11.67;;;4.50;;
13085;SDS011;6609;49.882;8.664;2023-06-14T14:38:12;9.37;;;3.80;;
13085;SDS011;6609;49.882;8.664;2023-06-14T14:40:39;9.17;;;3.33;;
13085;SDS011;6609;49.882;8.664;2023-06-14T14:43:06;13.37;;;3.93;;
13085;SDS011;6609;49.882;8.664;2023-06-14T14:45:33;8.07;;;3.70;;
13085;SDS011;6609;49.882;8.664;2023-06-14T14:48:00;7.87;;;3.40;;
13085;SDS011;6609;49.882;8.664;2023-06-14T14:50:27;8.73;;;3.40;;
13085;SDS011;6609;49.882;8.664;2023-06-14T14:52:55;10.00;;;3.90;;
13085;SDS011;6609;49.882;8.664;2023-06-14T14:55:23;8.10;;;3.83;;
13085;SDS011;6609;49.882;8.664;2023-06-14T14:57:49;8.47;;;3.53;;
13085;SDS011;6609;49.882;8.664;2023-06-14T15:00:17;10.03;;;3.40;;
13085;SDS011;6609;49.882;8.664;2023-06-14T15:02:44;7.27;;;3.37;;